Stations météo

réclame
Mon MeteoGroup
Blahammaren A, Suède (2210): Température de l'air & dewpoint: 17.10.2018 22:00:00 - 23.10.2018 22:00:00 (CEST)Blahammaren A, Suède (2210): Vitesse du vent & gusts: 17.10.2018 22:00:00 - 23.10.2018 22:00:00 (CEST)Blahammaren A, Suède (2210): Direction du vent: 17.10.2018 22:00:00 - 23.10.2018 22:00:00 (CEST)
Date & Time tt [°C] td [°C] ff [km/h] ff [knt] fx [km/h] fx [knt] dd
23.10.2018 22:00:00 -4,1 -4,6 - - - - -
23.10.2018 21:00:00 -4,4 -4,9 37 20 - - WNW
23.10.2018 20:00:00 -4,6 -5,1 - - - - -
23.10.2018 19:00:00 -4,7 -5,2 - - - - -
23.10.2018 18:00:00 -5,0 -5,5 32 18 - - NNW
23.10.2018 17:00:00 -4,6 -5,1 57 31 - - WNW
23.10.2018 16:00:00 -4,6 -5,1 - - - - -
23.10.2018 15:00:00 -4,4 -4,9 - - - - -
23.10.2018 14:00:00 -3,7 -4,1 - - - - -
23.10.2018 13:00:00 -3,2 -3,6 - - - - -
23.10.2018 12:00:00 -3,1 -3,5 - - - - -
23.10.2018 11:00:00 -2,7 -3,0 - - - - -
23.10.2018 10:00:00 -2,8 -3,1 27 15 39 21 WNW
23.10.2018 09:00:00 -3,1 -3,5 19 10 28 15 WNW
23.10.2018 08:00:00 -2,9 -3,3 20 11 27 15 WNW
23.10.2018 07:00:00 -2,8 -3,1 16 8 20 11 WNW
23.10.2018 06:00:00 -2,7 -3,0 10 5 18 10 WSW
23.10.2018 05:00:00 -2,8 -3,1 14 8 33 18 SSW
23.10.2018 04:00:00 -3,0 -3,4 30 16 42 23 S
23.10.2018 03:00:00 -2,9 -3,4 36 19 53 28 S
23.10.2018 02:00:00 -2,9 -3,6 43 23 53 29 S
23.10.2018 01:00:00 -3,5 -4,2 39 21 59 32 S
23.10.2018 00:00:00 -3,5 -4,0 46 25 55 30 S
22.10.2018 23:00:00 -4,1 -4,6 33 18 47 26 S
22.10.2018 22:00:00 -4,1 -4,6 36 19 44 24 S
22.10.2018 21:00:00 -4,1 -4,5 26 14 36 20 SSW
22.10.2018 20:00:00 -3,4 -3,8 22 12 35 19 WSW
22.10.2018 19:00:00 -3,4 -3,8 17 9 44 24 SSW
22.10.2018 18:00:00 -3,2 -3,6 24 13 59 32 W
22.10.2018 17:00:00 -2,9 -3,3 32 17 65 35 W
22.10.2018 16:00:00 -3,0 -3,4 30 16 69 37 W
22.10.2018 15:00:00 -2,7 -3,0 32 17 - - WNW
22.10.2018 14:00:00 -2,4 -2,7 - - - - -
22.10.2018 13:00:00 -2,7 -3,0 - - - - -
22.10.2018 12:00:00 -2,8 -3,2 - - - - -
22.10.2018 11:00:00 -3,2 -3,6 - - 61 33 -
22.10.2018 10:00:00 -3,3 -3,7 26 14 59 32 WSW
22.10.2018 09:00:00 -3,2 -3,6 29 16 55 30 SW
22.10.2018 08:00:00 -3,2 -3,9 28 15 48 26 SW
22.10.2018 07:00:00 -3,1 -3,8 18 10 41 22 SW
22.10.2018 06:00:00 -2,9 -3,7 19 11 64 35 SW
22.10.2018 05:00:00 -2,3 -3,1 28 15 60 32 WSW
22.10.2018 04:00:00 -2,3 -2,7 23 12 43 23 SW
22.10.2018 03:00:00 -2,0 -2,3 23 12 33 18 S
22.10.2018 02:00:00 -2,5 -2,8 15 8 46 25 WSW
22.10.2018 01:00:00 -2,2 -2,3 23 13 52 28 W
22.10.2018 00:00:00 -2,4 -2,5 15 8 65 35 WNW
21.10.2018 23:00:00 -1,8 -1,8 29 16 64 34 WNW
21.10.2018 22:00:00 -0,7 -0,7 28 15 58 31 WNW
21.10.2018 21:00:00 -0,7 -0,7 24 13 52 28 W
21.10.2018 20:00:00 -0,4 -0,4 24 13 52 28 WNW
21.10.2018 19:00:00 0,2 0,2 21 11 44 24 WNW
21.10.2018 18:00:00 1,1 1,1 34 18 48 26 WNW
21.10.2018 17:00:00 2,7 2,7 24 13 37 20 WSW
21.10.2018 16:00:00 1,3 1,3 14 8 35 19 W
21.10.2018 15:00:00 1,6 1,6 21 11 39 21 WNW
21.10.2018 14:00:00 2,3 2,3 18 10 29 16 WNW
21.10.2018 13:00:00 3,3 3,3 13 7 23 12 SW
21.10.2018 12:00:00 3,1 3,1 17 9 26 14 SW
21.10.2018 11:00:00 2,8 2,7 16 9 34 18 SSW
21.10.2018 10:00:00 2,7 2,4 24 13 35 19 S
21.10.2018 09:00:00 2,4 2,3 23 12 37 20 S
21.10.2018 08:00:00 2,4 2,1 28 15 38 20 S
21.10.2018 07:00:00 2,4 2,1 31 17 41 22 S
21.10.2018 06:00:00 2,8 2,1 29 16 48 26 S
21.10.2018 05:00:00 2,7 2,1 35 19 55 30 S
21.10.2018 04:00:00 3,0 2,6 41 22 56 31 S
21.10.2018 03:00:00 2,3 2,2 35 19 59 32 S
21.10.2018 02:00:00 2,3 1,7 41 22 54 29 S
21.10.2018 01:00:00 2,3 0,8 43 23 56 30 S
21.10.2018 00:00:00 2,0 -0,6 37 20 63 34 S
20.10.2018 23:00:00 2,2 -1,8 46 25 62 33 SSW
20.10.2018 22:00:00 1,5 -2,3 49 26 61 33 S
20.10.2018 21:00:00 0,7 -2,0 32 17 49 26 S
20.10.2018 20:00:00 0,3 -1,8 34 18 40 21 S
20.10.2018 19:00:00 0,8 -1,8 27 15 38 21 S
20.10.2018 18:00:00 0,6 -0,9 24 13 34 18 S
20.10.2018 17:00:00 1,1 -0,2 29 15 32 18 S
20.10.2018 16:00:00 1,4 0,7 13 7 19 10 SW
20.10.2018 15:00:00 1,3 1,2 11 6 20 11 WSW
20.10.2018 14:00:00 0,7 0,7 13 7 29 15 W
20.10.2018 13:00:00 0,4 0,4 17 9 26 14 W
20.10.2018 12:00:00 0,4 0,4 17 9 39 21 WNW
20.10.2018 11:00:00 0,5 0,5 18 10 33 18 WNW
20.10.2018 10:00:00 0,3 0,3 23 12 39 21 WNW
20.10.2018 09:00:00 0,2 0,1 21 12 36 19 WNW
20.10.2018 08:00:00 0,3 0,2 21 11 38 21 W
20.10.2018 07:00:00 -0,1 -0,2 14 8 24 13 SW
20.10.2018 06:00:00 -0,2 -0,3 16 9 22 12 SW
20.10.2018 05:00:00 -0,4 -0,7 13 7 22 12 SW
20.10.2018 04:00:00 -0,1 -0,7 17 9 30 16 SW
20.10.2018 03:00:00 0,1 -1,0 22 12 34 18 SSW
20.10.2018 02:00:00 0,5 -1,4 29 15 40 22 S
20.10.2018 01:00:00 0,7 -1,9 29 16 43 23 S
20.10.2018 00:00:00 0,9 -2,2 28 15 35 19 S
19.10.2018 23:00:00 1,2 -2,6 29 16 36 20 S
19.10.2018 22:00:00 1,7 -2,8 16 9 35 19 SSE
19.10.2018 21:00:00 2,0 -3,3 28 15 38 21 S
19.10.2018 20:00:00 1,4 -2,2 23 13 31 17 SSE
19.10.2018 19:00:00 1,8 -2,7 21 12 34 19 S
19.10.2018 18:00:00 1,8 -1,6 16 9 27 15 SSE
19.10.2018 17:00:00 1,7 -0,6 16 9 22 12 SSE
19.10.2018 16:00:00 1,6 -0,2 21 11 30 16 S
19.10.2018 15:00:00 1,2 1,1 24 13 32 18 S
19.10.2018 14:00:00 0,9 0,9 23 12 31 17 S
19.10.2018 13:00:00 0,7 0,7 15 8 20 11 SW
19.10.2018 12:00:00 0,7 0,7 13 7 30 16 WSW
19.10.2018 11:00:00 0,5 0,5 15 8 34 18 WSW
19.10.2018 10:00:00 0,3 0,2 13 7 28 15 WSW
19.10.2018 09:00:00 0,1 0,1 17 9 41 22 W
19.10.2018 08:00:00 -0,1 -0,1 22 12 40 22 W
19.10.2018 07:00:00 -0,1 -0,1 21 11 40 22 WNW
19.10.2018 06:00:00 -0,2 -0,2 18 10 44 24 WNW
19.10.2018 05:00:00 -0,4 -0,4 17 9 56 30 W
19.10.2018 04:00:00 -0,4 -0,5 33 18 66 35 WNW
19.10.2018 03:00:00 -0,7 -0,8 49 27 71 38 WNW
19.10.2018 02:00:00 -0,8 -0,9 46 25 78 42 WNW
19.10.2018 01:00:00 -0,7 -0,8 48 26 71 38 WNW
19.10.2018 00:00:00 -0,7 -0,8 37 20 88 47 WNW
18.10.2018 23:00:00 -0,9 -1,0 39 21 73 39 WNW
18.10.2018 22:00:00 -1,0 -1,1 39 21 74 40 WNW
18.10.2018 21:00:00 -0,9 -1,0 40 22 74 40 W
18.10.2018 20:00:00 -0,8 -1,1 30 16 69 37 W
18.10.2018 19:00:00 -0,8 -1,2 33 18 59 32 W
18.10.2018 18:00:00 -0,6 -1,3 34 18 65 35 W
18.10.2018 17:00:00 -0,1 -1,4 41 22 64 35 W
18.10.2018 16:00:00 -0,1 -0,9 32 17 58 31 WSW
18.10.2018 15:00:00 -0,2 -0,5 30 16 55 30 W
18.10.2018 14:00:00 0,0 -0,8 33 18 61 33 WSW
18.10.2018 13:00:00 -0,5 -0,8 31 17 59 32 WSW
18.10.2018 12:00:00 -0,9 -1,2 28 15 55 30 SW
18.10.2018 11:00:00 -0,9 -1,3 34 19 60 33 WSW
18.10.2018 10:00:00 -0,3 -0,7 33 18 54 29 W
18.10.2018 09:00:00 -1,2 -1,3 23 13 45 25 W
18.10.2018 08:00:00 -0,9 -0,9 18 10 49 26 W
18.10.2018 07:00:00 -0,4 -0,4 16 9 39 21 SSW
18.10.2018 06:00:00 0,6 0,6 18 10 24 13 SW
18.10.2018 05:00:00 0,6 0,6 14 7 23 12 SW
18.10.2018 04:00:00 0,7 0,7 11 6 19 10 WSW
18.10.2018 03:00:00 0,7 0,7 10 6 30 16 W
18.10.2018 02:00:00 1,0 1,0 14 7 29 16 WSW
18.10.2018 01:00:00 0,7 0,7 16 9 31 17 W
18.10.2018 00:00:00 0,4 0,4 15 8 27 14 WNW
17.10.2018 23:00:00 1,5 1,4 17 9 27 14 NNW
17.10.2018 22:00:00 2,0 2,0 16 9 23 12 N

tt = Température de l'air
td = dewpoint
ff = Vitesse du vent
fx = gusts
dd = Direction du vent

stations d'obs. à proximité